createdAt,value
2022-09-07T00:02:23.566Z,100300.06
2022-09-07T00:04:54.786Z,100306.53
2022-09-07T00:07:23.988Z,100300.25
2022-09-07T00:09:57.190Z,100295.88
2022-09-07T00:12:31.005Z,100297.44
2022-09-07T00:15:08.812Z,100301.63
2022-09-07T00:17:40.413Z,100299.03
2022-09-07T00:20:12.641Z,100295.03
2022-09-07T00:22:43.384Z,100286.03
2022-09-07T00:25:15.480Z,100286.44
2022-09-07T00:27:48.571Z,100285.28
2022-09-07T00:30:21.289Z,100284.66
2022-09-07T00:32:51.184Z,100277.78
2022-09-07T00:35:26.034Z,100275.47
2022-09-07T00:37:55.896Z,100278.56
2022-09-07T00:40:30.754Z,100280.38
2022-09-07T00:43:00.907Z,100275.75
2022-09-07T00:45:36.812Z,100278.97
2022-09-07T00:48:18.970Z,100283.78
2022-09-07T00:51:01.170Z,100284.03
2022-09-07T00:53:33.856Z,100280.41
2022-09-07T00:56:05.783Z,100282.25
2022-09-07T00:58:38.533Z,100275.66
2022-09-07T01:01:10.695Z,100269.03
2022-09-07T01:03:46.881Z,100271.56
2022-09-07T01:06:22.862Z,100271.88
2022-09-07T01:08:53.089Z,100269.38
2022-09-07T01:11:26.985Z,100275.31
2022-09-07T01:13:59.831Z,100274.06
2022-09-07T01:17:14.136Z,100277.72
2022-09-07T01:20:11.672Z,100275.19
2022-09-07T01:23:28.790Z,100278.16
2022-09-07T01:26:49.217Z,100263.94
2022-09-07T01:29:38.450Z,100263.28
2022-09-07T01:32:20.980Z,100265.16
2022-09-07T01:34:55.925Z,100262.16
2022-09-07T01:37:43.691Z,100260.16
2022-09-07T01:40:44.076Z,100268.41
2022-09-07T01:43:25.883Z,100269.03
2022-09-07T01:45:59.453Z,100260.47
2022-09-07T01:48:27.608Z,100261.41
2022-09-07T01:51:03.375Z,100256.75
2022-09-07T01:53:41.470Z,100249.66
2022-09-07T01:56:24.071Z,100245.22
2022-09-07T01:58:55.761Z,100240.50
2022-09-07T02:01:39.749Z,100246.22
2022-09-07T02:04:23.989Z,100250.09
2022-09-07T02:06:57.456Z,100258.38
2022-09-07T02:09:40.854Z,100244.19
2022-09-07T02:12:40.623Z,100243.84
2022-09-07T02:15:16.866Z,100252.12
2022-09-07T02:17:53.028Z,100245.75
2022-09-07T02:20:32.460Z,100256.59
2022-09-07T02:23:04.538Z,100246.28
2022-09-07T02:25:44.848Z,100244.56
2022-09-07T02:28:22.900Z,100244.00
2022-09-07T02:30:52.472Z,100236.25
2022-09-07T02:33:22.383Z,100231.66
2022-09-07T02:35:53.073Z,100229.09
2022-09-07T02:38:24.968Z,100232.63
2022-09-07T02:40:57.589Z,100232.12
2022-09-07T02:43:26.648Z,100233.13
2022-09-07T02:46:19.003Z,100223.09
2022-09-07T02:48:49.115Z,100228.50
2022-09-07T02:51:41.667Z,100226.50
2022-09-07T02:54:25.622Z,100214.81
2022-09-07T02:57:11.619Z,100220.78
2022-09-07T03:00:01.920Z,100220.56
2022-09-07T03:03:00.569Z,100221.47
2022-09-07T03:05:55.678Z,100224.19
2022-09-07T03:08:41.346Z,100226.72
2022-09-07T03:11:17.703Z,100224.59
2022-09-07T03:13:49.902Z,100230.97
2022-09-07T03:16:23.653Z,100224.44
2022-09-07T03:18:57.542Z,100220.50
2022-09-07T03:21:33.076Z,100212.38
2022-09-07T03:24:09.035Z,100217.25
2022-09-07T03:26:45.384Z,100220.19
2022-09-07T03:29:21.093Z,100225.19
2022-09-07T03:31:53.199Z,100219.78
2022-09-07T03:34:24.476Z,100217.28
2022-09-07T03:36:59.078Z,100219.87
2022-09-07T03:39:32.067Z,100218.03
2022-09-07T03:42:01.439Z,100220.47
2022-09-07T03:44:32.358Z,100222.78
2022-09-07T03:47:03.639Z,100218.50
2022-09-07T03:49:35.014Z,100227.47
2022-09-07T03:52:06.206Z,100220.78
2022-09-07T03:54:39.626Z,100227.78
2022-09-07T03:57:12.195Z,100236.28
2022-09-07T03:59:42.226Z,100238.19
2022-09-07T04:02:11.087Z,100240.19
2022-09-07T04:04:41.719Z,100238.81
2022-09-07T04:07:10.133Z,100235.78
2022-09-07T04:09:39.892Z,100234.53
2022-09-07T04:12:09.487Z,100235.47
2022-09-07T04:14:40.430Z,100237.06
2022-09-07T04:17:10.915Z,100238.19
2022-09-07T04:19:40.949Z,100244.78
2022-09-07T04:22:09.703Z,100238.34
2022-09-07T04:24:38.015Z,100239.56
2022-09-07T04:27:07.135Z,100248.94
2022-09-07T04:29:38.415Z,100250.47
2022-09-07T04:32:10.513Z,100247.63
2022-09-07T04:34:47.754Z,100242.28
2022-09-07T04:37:18.757Z,100249.66
2022-09-07T04:39:49.712Z,100255.97
2022-09-07T04:42:19.389Z,100255.84
2022-09-07T04:44:50.972Z,100261.47
2022-09-07T04:47:20.327Z,100265.25
2022-09-07T04:49:52.542Z,100256.44
2022-09-07T04:52:26.034Z,100261.19
2022-09-07T04:54:56.096Z,100266.81
2022-09-07T04:57:26.743Z,100266.94
2022-09-07T04:59:55.273Z,100265.03
2022-09-07T05:02:26.776Z,100268.53
2022-09-07T05:05:02.935Z,100267.87
2022-09-07T05:07:33.575Z,100260.87
2022-09-07T05:10:04.148Z,100259.06
2022-09-07T05:12:32.905Z,100259.50
2022-09-07T05:15:01.733Z,100256.47
2022-09-07T05:17:32.868Z,100260.44
2022-09-07T05:20:01.007Z,100257.87
2022-09-07T05:22:30.117Z,100269.50
2022-09-07T05:25:00.431Z,100265.97
2022-09-07T05:27:32.210Z,100271.63
2022-09-07T05:32:29.030Z,100275.22
2022-09-07T05:35:01.959Z,100276.59
2022-09-07T05:37:29.883Z,100280.50
2022-09-07T05:39:59.122Z,100289.19
2022-09-07T05:42:27.906Z,100277.78
2022-09-07T05:44:59.076Z,100280.75
2022-09-07T05:47:28.510Z,100276.28
2022-09-07T05:49:57.232Z,100281.53
2022-09-07T05:52:25.884Z,100272.53
2022-09-07T05:55:13.404Z,100274.69
2022-09-07T05:57:49.474Z,100282.22
2022-09-07T06:00:21.713Z,100284.34
2022-09-07T06:02:51.476Z,100295.31
2022-09-07T06:06:10.675Z,100292.88
2022-09-07T06:18:46.428Z,100290.16
2022-09-07T06:25:51.653Z,100288.06
2022-09-07T06:36:52.110Z,100284.56
2022-09-07T06:39:46.826Z,100282.25
2022-09-07T06:49:25.849Z,100283.78
2022-09-07T07:01:58.149Z,100275.22
2022-09-07T07:04:40.525Z,100269.00
2022-09-07T07:07:38.704Z,100271.41
2022-09-07T07:10:39.722Z,100277.34
2022-09-07T07:13:07.450Z,100279.28
2022-09-07T07:15:37.043Z,100276.97
2022-09-07T07:18:20.903Z,100279.72
2022-09-07T07:21:10.439Z,100282.75
2022-09-07T07:23:59.584Z,100291.06
2022-09-07T07:26:27.512Z,100290.81
2022-09-07T07:31:45.273Z,100283.22
2022-09-07T07:34:14.182Z,100278.47
2022-09-07T07:36:42.573Z,100281.53
2022-09-07T07:42:03.204Z,100277.03
2022-09-07T07:44:34.786Z,100280.50
2022-09-07T07:47:03.842Z,100284.06
2022-09-07T07:49:31.971Z,100282.72
2022-09-07T07:54:57.433Z,100283.91
2022-09-07T07:57:49.732Z,100273.44
2022-09-07T08:00:37.675Z,100275.09
2022-09-07T08:06:35.131Z,100272.25
2022-09-07T08:09:20.316Z,100282.13
2022-09-07T08:11:56.055Z,100277.44
2022-09-07T08:14:47.194Z,100277.72
2022-09-07T08:17:27.461Z,100276.94
2022-09-07T08:20:05.110Z,100282.13
2022-09-07T08:22:35.995Z,100279.78
2022-09-07T08:25:07.725Z,100274.31
2022-09-07T08:27:40.197Z,100266.03
2022-09-07T08:30:13.908Z,100269.03
2022-09-07T08:32:47.817Z,100259.59
2022-09-07T08:35:40.974Z,100268.31
2022-09-07T08:38:44.796Z,100274.69
2022-09-07T08:42:06.651Z,100262.34
2022-09-07T08:45:06.114Z,100259.41
2022-09-07T08:47:43.818Z,100264.28
2022-09-07T08:50:38.335Z,100265.59
2022-09-07T08:53:16.674Z,100263.34
2022-09-07T08:56:00.563Z,100269.53
2022-09-07T08:58:50.784Z,100260.09
2022-09-07T09:01:41.599Z,100257.13
2022-09-07T09:04:26.747Z,100256.91
2022-09-07T09:07:15.500Z,100253.50
2022-09-07T09:10:05.940Z,100248.28
2022-09-07T09:13:07.789Z,100244.78
2022-09-07T09:16:00.945Z,100248.06
2022-09-07T09:19:00.226Z,100258.66
2022-09-07T09:21:41.009Z,100248.41
2022-09-07T09:24:42.110Z,100247.66
2022-09-07T09:27:22.984Z,100247.84
2022-09-07T09:29:58.628Z,100239.41
2022-09-07T09:33:03.122Z,100237.63
2022-09-07T09:35:35.345Z,100238.88
2022-09-07T09:38:04.360Z,100234.72
2022-09-07T09:40:34.921Z,100234.78
2022-09-07T09:43:05.223Z,100233.03
2022-09-07T09:48:39.431Z,100224.72
2022-09-07T09:53:59.322Z,100220.31
2022-09-07T09:56:42.143Z,100219.47
2022-09-07T10:05:29.904Z,100212.47
2022-09-07T10:07:59.499Z,100217.06
2022-09-07T10:10:29.811Z,100217.06
2022-09-07T10:12:58.379Z,100211.34
2022-09-07T10:15:40.945Z,100210.37
2022-09-07T10:18:21.635Z,100210.41
2022-09-07T10:20:50.318Z,100203.63
2022-09-07T10:23:23.782Z,100196.94
2022-09-07T10:25:52.070Z,100197.81
2022-09-07T10:29:06.541Z,100193.31
2022-09-07T10:31:26.320Z,100198.69
2022-09-07T10:34:26.856Z,100203.25
2022-09-07T10:37:14.387Z,100200.16
2022-09-07T10:40:17.565Z,100195.31
2022-09-07T10:46:08.424Z,100189.94
2022-09-07T10:49:17.357Z,100186.34
2022-09-07T10:52:16.565Z,100187.78
2022-09-07T10:55:14.224Z,100183.28
2022-09-07T10:58:11.249Z,100186.97
2022-09-07T11:01:00.482Z,100185.47
2022-09-07T11:03:50.657Z,100185.00
2022-09-07T11:06:45.769Z,100181.72
2022-09-07T11:09:39.115Z,100183.50
2022-09-07T11:12:34.189Z,100183.53
2022-09-07T11:15:07.101Z,100181.53
2022-09-07T11:17:42.097Z,100181.34
2022-09-07T11:20:33.480Z,100169.25
2022-09-07T11:23:16.621Z,100167.00
2022-09-07T11:26:12.595Z,100175.00
2022-09-07T11:29:29.320Z,100174.44
2022-09-07T11:31:43.072Z,100169.34
2022-09-07T11:34:24.876Z,100168.97
2022-09-07T11:37:18.746Z,100157.50
2022-09-07T11:40:17.491Z,100166.97
2022-09-07T11:43:19.076Z,100165.06
2022-09-07T11:45:53.926Z,100165.19
2022-09-07T11:48:30.704Z,100161.63
2022-09-07T11:51:05.491Z,100152.13
2022-09-07T11:53:38.139Z,100155.59
2022-09-07T11:56:15.784Z,100164.53
2022-09-07T11:58:56.566Z,100152.72
2022-09-07T12:01:58.474Z,100150.88
2022-09-07T12:05:06.671Z,100146.13
2022-09-07T12:07:44.019Z,100138.25
2022-09-07T12:10:15.236Z,100133.19
2022-09-07T12:13:12.634Z,100136.06
2022-09-07T12:16:12.114Z,100135.75
2022-09-07T12:18:57.315Z,100134.03
2022-09-07T12:21:45.672Z,100137.12
2022-09-07T12:24:45.980Z,100133.53
2022-09-07T12:27:20.855Z,100129.34
2022-09-07T12:29:52.598Z,100130.22
2022-09-07T12:32:59.007Z,100134.38
2022-09-07T12:35:27.219Z,100131.81
2022-09-07T12:37:56.850Z,100139.81
2022-09-07T12:40:30.511Z,100137.25
2022-09-07T12:43:14.017Z,100125.37
2022-09-07T12:45:42.508Z,100124.41
2022-09-07T12:48:17.413Z,100133.94
2022-09-07T12:51:13.658Z,100123.34
2022-09-07T12:54:18.008Z,100130.53
2022-09-07T13:00:20.385Z,100112.06
2022-09-07T13:03:01.100Z,100115.06
2022-09-07T13:05:50.913Z,100117.38
2022-09-07T13:08:56.034Z,100107.41
2022-09-07T13:11:34.247Z,100104.03
2022-09-07T13:14:09.385Z,100103.12
2022-09-07T13:19:46.668Z,100101.44
2022-09-07T13:22:33.543Z,100098.72
2022-09-07T13:25:03.420Z,100097.25
2022-09-07T13:27:53.407Z,100081.00
2022-09-07T13:30:33.696Z,100085.19
2022-09-07T13:33:24.657Z,100093.25
2022-09-07T13:35:55.249Z,100087.41
2022-09-07T13:38:24.162Z,100078.06
2022-09-07T13:40:52.786Z,100074.81
2022-09-07T13:43:23.933Z,100071.88
2022-09-07T13:45:55.392Z,100069.62
2022-09-07T13:48:37.880Z,100071.44
2022-09-07T13:51:13.324Z,100074.28
2022-09-07T13:53:56.430Z,100063.34
2022-09-07T13:56:41.705Z,100057.13
2022-09-07T13:59:31.161Z,100059.25
2022-09-07T14:01:59.908Z,100056.56
2022-09-07T14:04:37.871Z,100050.25
2022-09-07T14:07:14.534Z,100053.87
2022-09-07T14:09:43.360Z,100050.31
2022-09-07T14:12:22.785Z,100043.13
2022-09-07T14:15:09.468Z,100048.53
2022-09-07T14:17:37.692Z,100044.00
2022-09-07T14:20:07.418Z,100056.47
2022-09-07T14:22:37.101Z,100046.50
2022-09-07T14:25:07.797Z,100051.09
2022-09-07T14:27:37.124Z,100051.53
2022-09-07T14:30:29.760Z,100051.47
2022-09-07T14:33:05.058Z,100051.63
2022-09-07T14:35:37.658Z,100048.62
2022-09-07T14:41:14.447Z,100034.47
2022-09-07T14:43:57.294Z,100047.94
2022-09-07T14:46:34.945Z,100043.22
2022-09-07T14:49:19.516Z,100041.66
2022-09-07T14:51:51.051Z,100044.06
2022-09-07T14:54:32.881Z,100042.44
2022-09-07T14:57:28.332Z,100053.50
2022-09-07T14:59:57.339Z,100038.84
2022-09-07T15:02:34.633Z,100035.91
2022-09-07T15:05:14.896Z,100045.56
2022-09-07T15:07:51.339Z,100046.03
2022-09-07T15:10:23.201Z,100041.50
2022-09-07T15:12:55.247Z,100045.00
2022-09-07T15:15:29.391Z,100043.97
2022-09-07T15:18:25.193Z,100039.25
2022-09-07T15:20:53.421Z,100047.06
2022-09-07T15:23:22.269Z,100039.03
2022-09-07T15:25:51.990Z,100021.97
2022-09-07T15:34:19.302Z,100038.03
2022-09-07T15:36:50.212Z,100038.09
2022-09-07T15:39:26.959Z,100036.75
2022-09-07T15:41:55.489Z,100040.63
2022-09-07T15:44:28.009Z,100036.72
2022-09-07T15:49:51.378Z,100039.06
2022-09-07T15:52:20.332Z,100039.56
2022-09-07T15:54:49.392Z,100046.28
2022-09-07T16:00:07.295Z,100051.81
2022-09-07T16:05:30.927Z,100046.59
2022-09-07T16:11:05.791Z,100042.72
2022-09-07T16:13:34.145Z,100041.75
2022-09-07T16:16:05.692Z,100042.41
2022-09-07T16:18:35.011Z,100042.41
2022-09-07T16:21:12.295Z,100041.91
2022-09-07T16:23:48.836Z,100035.88
2022-09-07T16:26:19.579Z,100040.56
2022-09-07T16:28:49.965Z,100040.41
2022-09-07T16:31:22.026Z,100040.75
2022-09-07T16:33:51.826Z,100040.56
2022-09-07T16:36:23.728Z,100028.25
2022-09-07T16:38:56.887Z,100023.56
2022-09-07T16:41:32.223Z,100031.16
2022-09-07T16:44:03.955Z,100022.12
2022-09-07T16:46:35.367Z,100014.53
2022-09-07T16:49:07.184Z,100024.28
2022-09-07T16:51:35.478Z,100006.56
2022-09-07T16:54:05.704Z,100007.56
2022-09-07T16:56:39.117Z,100008.22
2022-09-07T16:59:09.723Z,100002.87
2022-09-07T17:01:39.581Z,99994.84
2022-09-07T17:04:10.862Z,99987.78
2022-09-07T17:06:41.631Z,99989.38
2022-09-07T17:09:14.595Z,99991.47
2022-09-07T17:11:42.939Z,100002.81
2022-09-07T17:14:13.330Z,99991.56
2022-09-07T17:16:41.885Z,100000.34
2022-09-07T17:22:02.935Z,99994.22
2022-09-07T17:24:32.335Z,100003.13
2022-09-07T17:27:03.643Z,100007.06
2022-09-07T17:29:37.136Z,100007.44
2022-09-07T17:34:57.585Z,100015.69
2022-09-07T17:37:27.183Z,100016.53
2022-09-07T17:39:56.652Z,100020.69
2022-09-07T17:43:38.891Z,100028.72
2022-09-07T17:45:16.871Z,100033.19
2022-09-07T17:47:44.788Z,100035.03
2022-09-07T17:50:13.124Z,100036.25
2022-09-07T17:52:45.934Z,100035.84
2022-09-07T17:55:15.181Z,100049.19
2022-09-07T17:57:44.169Z,100039.94
2022-09-07T18:00:13.377Z,100037.28
2022-09-07T18:02:43.341Z,100044.50
2022-09-07T18:05:11.814Z,100049.59
2022-09-07T18:07:39.907Z,100052.16
2022-09-07T18:10:08.807Z,100050.50
2022-09-07T18:12:37.279Z,100050.06
2022-09-07T18:15:09.720Z,100063.87
2022-09-07T18:17:39.778Z,100052.25
2022-09-07T18:20:09.563Z,100068.44
2022-09-07T18:22:37.819Z,100066.34
2022-09-07T18:25:10.444Z,100056.78
2022-09-07T18:27:39.814Z,100069.47
2022-09-07T18:30:08.268Z,100065.50
2022-09-07T18:32:37.745Z,100067.66
2022-09-07T18:35:06.523Z,100063.44
2022-09-07T18:37:34.587Z,100070.81
2022-09-07T18:40:09.493Z,100067.25
2022-09-07T18:42:40.526Z,100064.88
2022-09-07T18:45:29.030Z,100065.13
2022-09-07T18:47:57.807Z,100064.44
2022-09-07T18:50:27.056Z,100062.34
2022-09-07T18:53:04.116Z,100059.38
2022-09-07T18:55:43.331Z,100060.41
2022-09-07T18:58:12.840Z,100056.31
2022-09-07T19:00:45.883Z,100052.09
2022-09-07T19:03:15.391Z,100056.75
2022-09-07T19:05:50.328Z,100055.72
2022-09-07T19:08:24.281Z,100054.22
2022-09-07T19:10:53.221Z,100050.72
2022-09-07T19:13:23.017Z,100042.25
2022-09-07T19:15:53.065Z,100047.13
2022-09-07T19:18:24.508Z,100048.00
2022-09-07T19:21:08.070Z,100048.84
2022-09-07T19:23:37.250Z,100042.28
2022-09-07T19:26:08.251Z,100041.28
2022-09-07T19:28:37.522Z,100047.37
2022-09-07T19:31:07.051Z,100047.53
2022-09-07T19:33:39.585Z,100057.31
2022-09-07T19:36:15.460Z,100050.37
2022-09-07T19:38:44.827Z,100050.69
2022-09-07T19:41:16.377Z,100056.47
2022-09-07T19:43:47.041Z,100044.13
2022-09-07T19:46:22.773Z,100044.00
2022-09-07T19:48:56.514Z,100054.91
2022-09-07T19:51:25.522Z,100051.25
2022-09-07T19:53:55.981Z,100047.00
2022-09-07T19:56:24.702Z,100051.09
2022-09-07T19:58:55.687Z,100045.03
2022-09-07T20:01:25.810Z,100046.00
2022-09-07T20:04:05.990Z,100047.72
2022-09-07T20:06:35.312Z,100045.84
2022-09-07T20:09:04.881Z,100048.28
2022-09-07T20:11:35.412Z,100047.47
2022-09-07T20:14:05.514Z,100047.63
2022-09-07T20:16:40.317Z,100045.44
2022-09-07T20:19:16.251Z,100050.03
2022-09-07T20:21:49.891Z,100052.12
2022-09-07T20:24:23.524Z,100046.34
2022-09-07T20:27:00.836Z,100052.03
2022-09-07T20:29:35.905Z,100041.25
2022-09-07T20:32:05.452Z,100045.78
2022-09-07T20:34:34.778Z,100040.25
2022-09-07T20:37:07.059Z,100043.38
2022-09-07T20:39:39.344Z,100040.28
2022-09-07T20:42:08.634Z,100044.84
2022-09-07T20:44:38.565Z,100044.25
2022-09-07T20:47:07.062Z,100041.38
2022-09-07T20:49:34.930Z,100048.53
2022-09-07T20:52:04.105Z,100036.56
2022-09-07T20:54:32.736Z,100037.22
2022-09-07T20:57:03.824Z,100033.81
2022-09-07T20:59:34.280Z,100030.56
2022-09-07T21:02:02.960Z,100036.56
2022-09-07T21:04:33.489Z,100035.84
2022-09-07T21:07:03.307Z,100032.91
2022-09-07T21:09:31.239Z,100030.37
2022-09-07T21:12:00.112Z,100033.03
2022-09-07T21:14:28.909Z,100020.16
2022-09-07T21:16:56.870Z,100021.81
2022-09-07T21:19:24.721Z,100021.56
2022-09-07T21:21:54.172Z,100022.59
2022-09-07T21:24:23.195Z,100012.41
2022-09-07T21:26:52.273Z,100027.16
2022-09-07T21:29:26.705Z,100017.84
2022-09-07T21:31:55.457Z,100026.97
2022-09-07T21:34:25.321Z,100017.44
2022-09-07T21:36:55.189Z,100019.59
2022-09-07T21:39:24.009Z,100022.91
2022-09-07T21:41:52.198Z,100016.37
2022-09-07T21:44:21.402Z,100023.78
2022-09-07T21:46:51.243Z,100025.66
2022-09-07T21:49:19.349Z,100024.09
2022-09-07T21:51:47.640Z,100028.66
2022-09-07T21:54:18.361Z,100018.81
2022-09-07T21:56:47.049Z,100021.41
2022-09-07T21:59:15.684Z,100016.13
2022-09-07T22:01:45.539Z,100023.22
2022-09-07T22:04:15.027Z,100024.88
2022-09-07T22:06:44.032Z,100025.53
2022-09-07T22:09:12.278Z,100018.03
2022-09-07T22:11:45.886Z,100025.53
2022-09-07T22:14:20.873Z,100028.53
2022-09-07T22:16:55.098Z,100030.87
2022-09-07T22:19:25.729Z,100032.94
2022-09-07T22:21:59.393Z,100029.19
2022-09-07T22:24:31.146Z,100030.44
2022-09-07T22:27:04.900Z,100027.53
2022-09-07T22:29:34.367Z,100023.37
2022-09-07T22:32:08.595Z,100019.41
2022-09-07T22:34:40.043Z,100017.75
2022-09-07T22:37:11.964Z,100017.50
2022-09-07T22:39:42.637Z,100020.66
2022-09-07T22:42:16.070Z,100027.63
2022-09-07T22:44:48.658Z,100026.81
2022-09-07T22:47:19.448Z,100024.53
2022-09-07T22:49:49.779Z,100025.09
2022-09-07T22:52:25.130Z,100017.59
2022-09-07T22:54:55.723Z,100010.00
2022-09-07T22:57:29.770Z,100005.53
2022-09-07T22:59:59.831Z,99996.38
2022-09-07T23:02:31.108Z,100003.00
2022-09-07T23:05:07.879Z,100001.19
2022-09-07T23:07:40.410Z,99993.09
2022-09-07T23:10:10.303Z,99995.84
2022-09-07T23:12:42.318Z,99998.47
2022-09-07T23:15:13.598Z,99990.78
2022-09-07T23:17:46.691Z,99989.12
2022-09-07T23:20:18.623Z,99988.13
2022-09-07T23:22:52.203Z,99989.25
2022-09-07T23:25:26.203Z,99981.62
2022-09-07T23:28:03.611Z,99982.97
2022-09-07T23:30:48.092Z,99981.50
2022-09-07T23:33:21.247Z,99967.62
2022-09-07T23:35:59.138Z,99964.00
2022-09-07T23:38:36.454Z,99960.09
2022-09-07T23:43:39.132Z,99954.34
2022-09-07T23:46:10.060Z,99955.19
2022-09-07T23:48:46.892Z,99957.94
2022-09-07T23:51:24.224Z,99952.19
2022-09-07T23:54:03.986Z,99952.53
2022-09-07T23:56:33.564Z,99957.22
2022-09-07T23:59:06.068Z,99959.19
